Time;durP1;ratioP1;P1;durP2;ratioP2;P2;SDS_P1;SDS_P2;PMS_P1;PMS_P2;Temp;Humidity;BMP_temperature;BMP_pressure;BME280_temperature;BME280_humidity;BME280_pressure;Samples;Min_cycle;Max_cycle;Signal;HPM_P1;HPM_P2
2021/03/27 00:01:46;;;;;;;14.00;2.50;;;3.00;99.90;;;;;;4969495;28;20038;-92
2021/03/27 00:04:18;;;;;;;12.82;3.75;;;3.00;99.90;;;;;;4961060;28;20055;-92
2021/03/27 00:06:52;;;;;;;10.05;1.23;;;3.00;99.90;;;;;;4965358;28;20014;-92
2021/03/27 00:09:35;;;;;;;9.60;2.50;;;3.00;99.90;;;;;;4962618;28;20039;-92
2021/03/27 00:12:01;;;;;;;15.90;3.42;;;3.00;99.90;;;;;;4970139;28;20054;-93
2021/03/27 00:14:32;;;;;;;13.52;2.20;;;3.00;99.90;;;;;;4954058;28;20034;-93
2021/03/27 00:17:10;;;;;;;8.13;1.70;;;3.00;99.90;;;;;;4970487;28;20029;-92
2021/03/27 00:19:53;;;;;;;8.48;1.85;;;3.00;99.90;;;;;;4983520;28;20038;-92
2021/03/27 00:22:30;;;;;;;12.48;2.20;;;3.10;99.90;;;;;;4987651;28;20077;-92
2021/03/27 00:25:08;;;;;;;7.10;1.05;;;3.10;99.90;;;;;;4964701;28;20043;-92
2021/03/27 00:27:42;;;;;;;14.90;4.10;;;3.10;99.90;;;;;;4962632;28;20182;-92
2021/03/27 00:30:14;;;;;;;8.93;1.73;;;3.10;99.90;;;;;;4971048;28;20037;-93
2021/03/27 00:32:46;;;;;;;10.40;1.63;;;3.10;99.90;;;;;;4970152;28;20044;-92
2021/03/27 00:35:17;;;;;;;18.20;3.03;;;3.10;99.90;;;;;;4965498;28;20488;-92
2021/03/27 00:37:45;;;;;;;13.98;2.83;;;3.10;99.90;;;;;;4966978;28;20130;-92
2021/03/27 00:40:18;;;;;;;17.98;2.38;;;3.10;99.90;;;;;;4968603;28;20027;-91
2021/03/27 00:43:08;;;;;;;14.40;2.22;;;3.10;99.90;;;;;;4965439;28;20031;-92
2021/03/27 00:45:47;;;;;;;13.88;2.40;;;3.10;99.90;;;;;;4951988;28;20043;-93
2021/03/27 00:48:22;;;;;;;13.27;1.95;;;3.10;99.90;;;;;;4967065;28;20520;-92
2021/03/27 00:50:56;;;;;;;10.93;3.15;;;3.10;99.90;;;;;;4965288;28;20026;-92
2021/03/27 00:53:42;;;;;;;15.90;2.17;;;3.10;99.90;;;;;;4966798;28;20047;-92
2021/03/27 00:56:18;;;;;;;9.75;2.13;;;3.10;99.90;;;;;;4965342;28;20034;-91
2021/03/27 00:58:58;;;;;;;7.03;1.25;;;3.10;99.90;;;;;;4965183;28;20030;-91
2021/03/27 01:01:26;;;;;;;18.13;2.65;;;3.10;99.90;;;;;;4966541;28;20022;-92
2021/03/27 01:03:56;;;;;;;15.52;2.25;;;3.10;99.90;;;;;;4963641;28;20067;-92
2021/03/27 01:06:32;;;;;;;9.60;1.65;;;3.10;99.90;;;;;;4967326;28;20086;-92
2021/03/27 01:09:00;;;;;;;19.25;2.35;;;3.10;99.90;;;;;;4970068;28;20031;-91
2021/03/27 01:11:31;;;;;;;12.38;2.10;;;3.10;99.90;;;;;;4967023;28;20025;-91
2021/03/27 01:14:01;;;;;;;10.55;2.88;;;3.10;99.90;;;;;;4965188;28;20122;-91
2021/03/27 01:16:33;;;;;;;12.53;2.40;;;3.10;99.90;;;;;;4986404;28;20027;-91
2021/03/27 01:19:10;;;;;;;9.52;1.92;;;3.10;99.90;;;;;;4964003;28;20117;-92
2021/03/27 01:21:39;;;;;;;12.75;2.15;;;3.10;99.90;;;;;;4966786;28;20030;-91
2021/03/27 01:24:08;;;;;;;10.93;1.67;;;3.10;99.90;;;;;;4964400;28;20027;-92
2021/03/27 01:26:42;;;;;;;16.70;1.98;;;3.10;99.90;;;;;;4966462;28;20054;-92
2021/03/27 01:29:09;;;;;;;12.77;1.98;;;3.10;99.90;;;;;;4964748;28;20504;-91
2021/03/27 01:31:53;;;;;;;6.93;1.60;;;3.00;99.90;;;;;;4965082;28;20026;-91
2021/03/27 01:34:22;;;;;;;9.30;2.45;;;3.10;99.90;;;;;;4965710;28;20485;-92
2021/03/27 01:37:01;;;;;;;7.70;1.85;;;3.00;99.90;;;;;;4961661;28;20019;-91
2021/03/27 01:39:38;;;;;;;9.55;2.85;;;3.00;99.90;;;;;;4970059;28;20030;-92
2021/03/27 01:42:30;;;;;;;9.65;2.65;;;3.00;99.90;;;;;;4955337;28;20019;-91
2021/03/27 01:45:13;;;;;;;11.25;2.60;;;2.90;99.90;;;;;;4970486;28;20122;-91
2021/03/27 01:47:51;;;;;;;11.73;2.63;;;2.90;99.90;;;;;;4975738;28;20110;-91
2021/03/27 01:50:23;;;;;;;18.15;2.67;;;2.90;99.90;;;;;;4966902;28;20053;-92
2021/03/27 01:53:01;;;;;;;14.48;2.60;;;2.80;99.90;;;;;;4965145;28;20022;-91
2021/03/27 01:55:36;;;;;;;12.65;2.78;;;2.80;99.90;;;;;;4964002;28;20037;-91
2021/03/27 01:58:16;;;;;;;9.18;1.77;;;2.80;99.90;;;;;;4966701;28;20035;-90
2021/03/27 02:00:50;;;;;;;14.23;2.28;;;2.80;99.90;;;;;;4968595;28;20038;-91
2021/03/27 02:03:29;;;;;;;11.93;2.45;;;2.80;99.90;;;;;;4964854;28;20042;-91
2021/03/27 02:06:07;;;;;;;10.60;2.42;;;2.80;99.90;;;;;;4968139;28;20050;-91
2021/03/27 02:08:48;;;;;;;15.00;2.58;;;2.80;99.90;;;;;;4964429;28;20520;-91
2021/03/27 02:11:17;;;;;;;13.52;2.33;;;2.80;99.90;;;;;;4964675;28;20027;-91
2021/03/27 02:14:07;;;;;;;13.73;2.85;;;2.80;99.90;;;;;;4963548;28;20034;-92
2021/03/27 02:16:39;;;;;;;8.82;2.58;;;2.80;99.90;;;;;;4962595;28;20066;-91
2021/03/27 02:19:43;;;;;;;3.65;1.15;;;2.80;99.90;;;;;;4949216;28;20027;-92
2021/03/27 02:22:14;;;;;;;12.00;2.55;;;2.80;99.90;;;;;;4963199;28;20106;-92
2021/03/27 02:24:58;;;;;;;16.42;2.85;;;2.80;99.90;;;;;;4963588;28;20499;-91
2021/03/27 02:27:48;;;;;;;9.00;1.98;;;2.80;99.90;;;;;;4965599;28;20043;-92
2021/03/27 02:30:22;;;;;;;12.52;1.88;;;2.80;99.90;;;;;;4962620;28;20457;-92
2021/03/27 02:33:15;;;;;;;4.30;1.65;;;2.70;99.90;;;;;;4963368;28;20027;-91
2021/03/27 02:36:17;;;;;;;11.45;2.40;;;2.70;99.90;;;;;;4964838;28;20019;-92
2021/03/27 02:38:49;;;;;;;6.68;1.67;;;2.60;99.90;;;;;;4965442;28;20027;-91
2021/03/27 02:41:55;;;;;;;13.88;3.20;;;2.70;99.90;;;;;;4963806;28;20027;-91
2021/03/27 02:44:30;;;;;;;5.72;1.45;;;2.70;99.90;;;;;;4964611;28;20142;-93
2021/03/27 02:47:25;;;;;;;12.05;1.63;;;2.70;99.90;;;;;;4966277;28;20035;-91
2021/03/27 02:50:05;;;;;;;18.15;4.68;;;2.80;99.90;;;;;;4957031;28;20039;-92
2021/03/27 02:52:52;;;;;;;17.43;4.93;;;2.70;99.90;;;;;;4963721;28;20159;-92
2021/03/27 02:55:32;;;;;;;15.55;3.50;;;2.70;99.90;;;;;;4961671;28;20274;-92
2021/03/27 02:58:12;;;;;;;24.23;7.47;;;2.70;99.90;;;;;;4961707;28;20027;-92
2021/03/27 03:00:44;;;;;;;16.67;5.65;;;2.60;99.90;;;;;;4988495;28;20358;-92
2021/03/27 03:03:55;;;;;;;17.48;3.05;;;2.50;99.90;;;;;;4962074;28;20097;-91
2021/03/27 03:06:28;;;;;;;18.35;3.20;;;2.40;99.90;;;;;;4954109;28;20431;-92
2021/03/27 03:09:06;;;;;;;14.77;2.42;;;2.40;99.90;;;;;;4961590;28;20388;-92
2021/03/27 03:11:39;;;;;;;7.82;1.95;;;2.30;99.90;;;;;;4986924;28;20023;-93
2021/03/27 03:14:28;;;;;;;10.90;1.75;;;2.30;99.90;;;;;;4964258;28;20051;-93
2021/03/27 03:17:17;;;;;;;11.55;2.10;;;2.30;99.90;;;;;;4963909;28;20047;-92
2021/03/27 03:20:06;;;;;;;13.20;2.47;;;2.30;99.90;;;;;;4962061;28;20065;-92
2021/03/27 03:22:47;;;;;;;9.68;2.25;;;2.30;99.90;;;;;;4965664;28;20039;-92
2021/03/27 03:25:20;;;;;;;9.07;1.83;;;2.30;99.90;;;;;;4964157;28;20552;-92
2021/03/27 03:27:48;;;;;;;12.60;3.15;;;2.40;99.90;;;;;;4964452;28;20050;-93
2021/03/27 03:30:53;;;;;;;11.60;4.60;;;2.40;99.90;;;;;;4965388;28;20090;-92
2021/03/27 03:33:49;;;;;;;7.90;1.77;;;2.40;99.90;;;;;;4964500;28;20038;-92
2021/03/27 03:36:37;;;;;;;12.43;2.75;;;2.40;99.90;;;;;;4963368;28;20177;-91
2021/03/27 03:39:21;;;;;;;12.95;3.03;;;2.50;99.90;;;;;;4966446;28;20035;-93
2021/03/27 03:41:55;;;;;;;14.85;3.83;;;2.40;99.90;;;;;;4959698;28;20078;-92
2021/03/27 03:44:49;;;;;;;16.08;4.55;;;2.40;99.90;;;;;;4966800;28;20039;-92
2021/03/27 03:47:31;;;;;;;17.60;4.22;;;2.40;99.90;;;;;;4974434;28;20011;-91
2021/03/27 03:50:12;;;;;;;22.20;3.88;;;2.40;99.90;;;;;;5009862;28;20035;-92
2021/03/27 03:52:43;;;;;;;11.25;2.95;;;2.40;99.90;;;;;;4990076;28;20123;-92
2021/03/27 03:55:22;;;;;;;14.57;2.72;;;2.40;99.90;;;;;;4963288;28;20035;-92
2021/03/27 03:58:14;;;;;;;17.98;3.28;;;2.40;99.90;;;;;;4970944;28;20023;-92
2021/03/27 04:01:03;;;;;;;12.60;3.33;;;2.40;99.90;;;;;;4971356;28;20156;-92
2021/03/27 04:03:46;;;;;;;15.10;3.22;;;2.50;99.90;;;;;;4969482;28;20051;-93
2021/03/27 04:06:23;;;;;;;8.02;2.17;;;2.50;99.90;;;;;;4970614;28;20100;-93
2021/03/27 04:09:11;;;;;;;9.77;2.42;;;2.50;99.90;;;;;;4966071;28;20053;-92
2021/03/27 04:11:46;;;;;;;15.38;2.13;;;2.40;99.90;;;;;;4969447;28;20053;-92
2021/03/27 04:14:34;;;;;;;18.63;2.60;;;2.40;99.90;;;;;;4968223;28;20029;-92
2021/03/27 04:17:05;;;;;;;14.52;1.83;;;2.40;99.90;;;;;;4975060;28;20054;-92
2021/03/27 04:19:37;;;;;;;18.48;2.13;;;2.30;99.90;;;;;;4962606;28;20031;-92
2021/03/27 04:22:19;;;;;;;19.20;4.10;;;2.30;99.90;;;;;;4962406;28;20489;-92
2021/03/27 04:25:08;;;;;;;13.63;2.70;;;2.30;99.90;;;;;;4972073;28;20035;-92
2021/03/27 04:27:49;;;;;;;11.30;2.33;;;2.30;99.90;;;;;;4976467;28;20085;-92
2021/03/27 04:30:24;;;;;;;18.63;3.78;;;2.40;99.90;;;;;;4956756;29;20035;-92
2021/03/27 04:33:15;;;;;;;11.57;2.55;;;2.40;99.90;;;;;;4962187;29;20041;-92
2021/03/27 04:35:59;;;;;;;14.32;2.42;;;2.40;99.90;;;;;;4965009;28;20027;-93
2021/03/27 04:39:00;;;;;;;10.23;2.80;;;2.50;99.90;;;;;;4972323;28;20031;-92
2021/03/27 04:41:52;;;;;;;9.50;1.95;;;2.50;99.90;;;;;;4943569;28;20031;-93
2021/03/27 04:44:33;;;;;;;15.77;3.67;;;2.50;99.90;;;;;;4967973;28;20168;-94
2021/03/27 04:47:13;;;;;;;12.13;2.85;;;2.40;99.90;;;;;;4964556;28;20027;-93
2021/03/27 04:49:44;;;;;;;12.38;2.25;;;2.40;99.90;;;;;;4967062;28;20023;-94
2021/03/27 04:52:16;;;;;;;19.98;4.25;;;2.30;99.90;;;;;;4962094;28;20011;-93
2021/03/27 04:54:57;;;;;;;21.63;3.70;;;2.30;99.90;;;;;;4961986;28;20023;-93
2021/03/27 04:57:44;;;;;;;;;;;2.30;99.90;;;;;;4980186;28;20070;-94
2021/03/27 05:00:23;;;;;;;23.23;3.90;;;2.20;99.90;;;;;;4967949;28;19930;-92
2021/03/27 05:03:06;;;;;;;21.42;5.40;;;2.20;99.90;;;;;;4964094;28;20484;-93
2021/03/27 05:06:05;;;;;;;18.73;3.67;;;2.20;99.90;;;;;;4960504;28;20078;-94
2021/03/27 05:08:49;;;;;;;18.80;4.65;;;2.20;99.90;;;;;;4962965;28;20062;-93
2021/03/27 05:11:41;;;;;;;18.42;2.80;;;2.20;99.90;;;;;;4965456;28;20028;-94
2021/03/27 05:14:23;;;;;;;22.38;3.50;;;2.10;99.90;;;;;;4968836;28;20091;-94
2021/03/27 05:17:00;;;;;;;20.38;5.00;;;2.10;99.90;;;;;;4969005;28;20122;-94
2021/03/27 05:19:50;;;;;;;15.70;3.25;;;2.10;99.90;;;;;;4970753;28;20470;-94
2021/03/27 05:22:46;;;;;;;14.73;2.63;;;2.10;99.90;;;;;;4981767;28;20507;-95
2021/03/27 05:25:35;;;;;;;15.55;3.17;;;2.10;99.90;;;;;;4987733;28;20426;-95
2021/03/27 05:28:16;;;;;;;16.23;2.85;;;2.00;99.90;;;;;;4970609;28;20043;-95
2021/03/27 05:31:10;;;;;;;19.10;2.58;;;2.10;99.90;;;;;;4982918;28;20031;-94
2021/03/27 05:33:55;;;;;;;12.10;2.33;;;2.10;99.90;;;;;;4982640;28;20028;-95
2021/03/27 05:37:08;;;;;;;10.30;2.83;;;2.10;99.90;;;;;;4976748;28;20023;-95
2021/03/27 05:40:02;;;;;;;8.48;2.25;;;2.10;99.90;;;;;;4962282;29;20118;-94
2021/03/27 05:42:36;;;;;;;18.35;3.95;;;2.20;99.90;;;;;;4941546;29;20039;-95
2021/03/27 05:45:35;;;;;;;16.13;2.40;;;2.20;99.90;;;;;;4944880;29;20126;-95
2021/03/27 05:48:31;;;;;;;14.40;2.45;;;2.20;99.90;;;;;;4952750;29;20028;-94
2021/03/27 05:51:22;;;;;;;13.48;2.10;;;2.30;99.90;;;;;;4945849;29;20028;-94
2021/03/27 05:54:10;;;;;;;16.50;2.92;;;2.30;99.90;;;;;;4947012;29;20031;-94
2021/03/27 05:57:16;;;;;;;17.27;3.58;;;2.30;99.90;;;;;;4942987;29;20545;-94
2021/03/27 06:00:03;;;;;;;16.58;3.42;;;2.40;99.90;;;;;;4949154;29;20024;-95
2021/03/27 06:03:11;;;;;;;15.45;4.35;;;2.40;99.90;;;;;;4960774;29;20586;-94
2021/03/27 06:06:14;;;;;;;18.85;2.70;;;2.50;99.90;;;;;;4948418;29;20122;-93
2021/03/27 06:09:13;;;;;;;15.70;3.35;;;2.50;99.90;;;;;;4933345;29;20096;-94
2021/03/27 06:11:51;;;;;;;16.80;3.22;;;2.60;99.90;;;;;;4931179;29;20036;-94
2021/03/27 06:14:31;;;;;;;16.00;3.50;;;2.60;99.90;;;;;;4936940;29;20035;-93
2021/03/27 06:17:18;;;;;;;24.25;4.10;;;2.60;99.90;;;;;;4965193;28;20168;-94
2021/03/27 06:19:55;;;;;;;18.73;3.22;;;2.70;99.90;;;;;;4966350;28;20030;-94
2021/03/27 06:22:30;;;;;;;22.38;3.90;;;2.70;99.90;;;;;;4971482;28;20035;-94
2021/03/27 06:25:17;;;;;;;15.93;2.63;;;2.70;99.90;;;;;;4964283;28;20201;-94
2021/03/27 06:28:16;;;;;;;17.98;2.58;;;2.80;99.90;;;;;;4973663;28;20038;-94
2021/03/27 06:31:09;;;;;;;16.50;2.58;;;2.90;99.90;;;;;;4966978;28;20403;-94
2021/03/27 06:34:06;;;;;;;21.27;2.95;;;2.90;99.90;;;;;;4964155;28;20027;-94
2021/03/27 06:36:59;;;;;;;22.95;4.05;;;2.90;99.90;;;;;;4967964;28;20033;-94
2021/03/27 06:39:50;;;;;;;19.10;3.63;;;2.90;99.90;;;;;;4970460;28;20022;-93
2021/03/27 06:43:20;;;;;;;16.33;2.00;;;3.00;99.90;;;;;;4968607;28;20026;-93
2021/03/27 06:46:21;;;;;;;15.90;2.55;;;3.00;99.90;;;;;;4782904;30;20039;-92
2021/03/27 06:49:17;;;;;;;17.23;3.08;;;3.00;99.90;;;;;;4783083;29;20059;-93
2021/03/27 06:52:07;;;;;;;18.33;2.40;;;3.10;99.90;;;;;;4784767;30;20377;-94
2021/03/27 06:55:09;;;;;;;20.67;4.15;;;3.10;99.90;;;;;;4770363;30;20036;-93
2021/03/27 06:58:04;;;;;;;14.18;2.45;;;3.10;99.90;;;;;;4791899;30;20047;-93
2021/03/27 07:00:40;;;;;;;22.27;2.80;;;3.20;99.90;;;;;;4795082;29;20051;-93
2021/03/27 07:03:44;;;;;;;26.63;3.58;;;3.20;99.90;;;;;;4784678;30;20058;-96
2021/03/27 07:06:29;;;;;;;20.13;3.00;;;3.20;99.90;;;;;;4764198;30;20042;-93
2021/03/27 07:09:36;;;;;;;22.17;3.45;;;3.20;99.90;;;;;;4781790;30;20042;-92
2021/03/27 07:12:32;;;;;;;28.85;4.45;;;3.30;99.90;;;;;;4769278;30;20126;-93
2021/03/27 07:15:16;;;;;;;20.10;4.13;;;3.30;99.90;;;;;;4779019;29;20043;-92
2021/03/27 07:17:50;;;;;;;23.98;3.65;;;3.30;99.90;;;;;;4777766;29;20027;-92
2021/03/27 07:20:44;;;;;;;21.80;2.92;;;3.30;99.90;;;;;;4808897;28;20068;-92
2021/03/27 07:23:09;;;;;;;26.05;4.97;;;3.30;99.90;;;;;;4990780;28;20046;-93
2021/03/27 07:25:53;;;;;;;24.30;4.72;;;3.40;99.90;;;;;;4988773;28;20081;-93
2021/03/27 07:28:34;;;;;;;18.75;4.25;;;3.40;99.90;;;;;;4996546;28;20070;-92
2021/03/27 07:31:17;;;;;;;30.15;5.55;;;3.50;99.90;;;;;;4996163;28;20026;-91
2021/03/27 07:34:01;;;;;;;28.73;4.20;;;3.50;99.90;;;;;;4979761;28;20026;-91
2021/03/27 07:36:39;;;;;;;17.02;4.90;;;3.50;99.90;;;;;;4976473;28;20384;-91
2021/03/27 07:39:26;;;;;;;13.35;3.50;;;3.60;99.90;;;;;;4981657;28;20065;-93
2021/03/27 07:42:12;;;;;;;23.55;5.25;;;3.60;99.90;;;;;;4971849;28;20042;-92
2021/03/27 07:44:50;;;;;;;21.38;4.07;;;3.70;99.90;;;;;;4971359;28;20035;-91
2021/03/27 07:47:38;;;;;;;23.13;5.40;;;3.70;99.90;;;;;;4965458;28;20023;-92
2021/03/27 07:50:42;;;;;;;24.63;3.63;;;3.80;99.90;;;;;;4972614;28;20018;-92
2021/03/27 07:53:45;;;;;;;22.80;4.05;;;3.70;99.90;;;;;;4967864;28;20438;-92
2021/03/27 07:56:37;;;;;;;24.05;3.53;;;3.80;99.90;;;;;;4972342;28;20090;-92
2021/03/27 07:59:20;;;;;;;18.48;3.55;;;3.80;99.90;;;;;;4971800;28;20092;-92
2021/03/27 08:02:14;;;;;;;14.93;3.28;;;3.90;99.90;;;;;;4968387;28;20494;-93
2021/03/27 08:05:00;;;;;;;23.65;6.47;;;3.90;99.90;;;;;;4970258;28;20905;-92
2021/03/27 08:07:47;;;;;;;24.35;5.43;;;3.90;99.90;;;;;;4973345;28;20033;-93
2021/03/27 08:10:39;;;;;;;16.63;4.00;;;4.00;99.90;;;;;;4986836;28;20125;-92
2021/03/27 08:13:07;;;;;;;19.50;3.67;;;4.00;99.90;;;;;;4985590;28;20031;-92
2021/03/27 08:15:51;;;;;;;9.10;2.65;;;4.00;99.90;;;;;;4966320;28;20121;-93
2021/03/27 08:18:51;;;;;;;15.88;3.08;;;4.10;99.90;;;;;;4967289;28;20121;-92
2021/03/27 08:21:22;;;;;;;21.65;4.32;;;4.10;99.90;;;;;;4963886;28;20049;-92
2021/03/27 08:24:02;;;;;;;33.63;4.22;;;4.20;99.90;;;;;;4967887;28;20054;-92
2021/03/27 08:26:43;;;;;;;18.98;2.33;;;4.20;99.90;;;;;;4990162;28;20104;-92
2021/03/27 08:29:46;;;;;;;9.35;1.98;;;4.30;99.90;;;;;;4966036;28;20050;-92
2021/03/27 08:32:40;;;;;;;17.35;1.92;;;4.40;99.90;;;;;;4965097;28;20031;-92
2021/03/27 08:35:21;;;;;;;22.17;2.80;;;4.40;99.90;;;;;;4966819;28;20443;-92
2021/03/27 08:38:31;;;;;;;18.45;2.55;;;4.50;99.90;;;;;;4962526;28;20461;-91
2021/03/27 08:41:38;;;;;;;12.25;2.15;;;4.60;99.90;;;;;;4925030;28;20034;-91
2021/03/27 08:44:18;;;;;;;22.90;2.92;;;4.80;99.90;;;;;;4965599;28;20042;-92
2021/03/27 08:47:03;;;;;;;9.10;1.92;;;4.90;99.90;;;;;;4964175;28;20030;-92
2021/03/27 08:50:07;;;;;;;25.27;4.65;;;4.90;99.90;;;;;;4964024;28;20027;-92
2021/03/27 08:53:04;;;;;;;17.55;2.90;;;5.00;99.90;;;;;;4967286;28;20073;-92
2021/03/27 08:56:04;;;;;;;13.75;2.83;;;5.00;99.90;;;;;;4992574;28;20036;-92
2021/03/27 08:58:42;;;;;;;18.80;1.88;;;5.00;99.90;;;;;;4967155;28;20019;-92
2021/03/27 09:01:14;;;;;;;15.18;1.83;;;5.10;99.90;;;;;;4969316;28;20550;-93
2021/03/27 09:03:58;;;;;;;24.73;2.10;;;5.10;99.90;;;;;;4983346;28;20030;-92
2021/03/27 09:06:29;;;;;;;17.80;2.33;;;5.20;99.90;;;;;;4985501;28;20038;-92
2021/03/27 09:09:29;;;;;;;17.38;2.88;;;5.30;99.90;;;;;;4969220;28;20027;-92
2021/03/27 09:12:04;;;;;;;18.17;2.35;;;5.30;99.90;;;;;;4965816;28;20030;-92
2021/03/27 09:14:58;;;;;;;16.42;2.70;;;5.30;99.90;;;;;;4968336;28;20191;-92
2021/03/27 09:17:46;;;;;;;15.93;2.17;;;5.40;99.90;;;;;;4960723;28;20030;-92
2021/03/27 09:20:17;;;;;;;17.98;3.10;;;5.40;99.90;;;;;;4968823;28;20122;-91
2021/03/27 09:22:49;;;;;;;18.65;1.90;;;5.50;99.90;;;;;;4967294;28;20026;-91
2021/03/27 09:25:43;;;;;;;24.35;2.67;;;5.60;99.90;;;;;;4974688;28;20034;-92
2021/03/27 09:28:47;;;;;;;16.65;2.58;;;5.60;99.90;;;;;;4963541;28;20034;-91
2021/03/27 09:31:43;;;;;;;18.17;2.30;;;5.60;99.90;;;;;;4939306;28;20040;-91
2021/03/27 09:34:29;;;;;;;10.95;2.50;;;5.80;99.90;;;;;;4927870;29;20066;-91
2021/03/27 09:37:06;;;;;;;17.95;2.45;;;5.80;99.90;;;;;;4946208;29;20027;-91
2021/03/27 09:40:05;;;;;;;16.13;2.15;;;5.90;99.90;;;;;;4928536;29;20091;-92
2021/03/27 09:43:18;;;;;;;7.90;1.70;;;5.90;99.90;;;;;;4921588;29;20043;-90
2021/03/27 09:46:04;;;;;;;13.25;1.88;;;6.10;99.90;;;;;;4877342;29;20095;-91
2021/03/27 09:48:41;;;;;;;14.60;2.13;;;6.30;99.90;;;;;;4896279;29;20061;-90
2021/03/27 09:51:39;;;;;;;9.88;1.60;;;6.50;99.90;;;;;;4878644;29;20036;-91
2021/03/27 09:54:28;;;;;;;15.75;1.90;;;6.50;99.90;;;;;;4820388;29;20054;-91
2021/03/27 09:57:07;;;;;;;14.82;2.30;;;6.40;99.50;;;;;;4806469;29;20041;-91
2021/03/27 09:59:46;;;;;;;14.90;2.10;;;6.40;99.10;;;;;;4812381;29;20652;-91
2021/03/27 10:02:34;;;;;;;7.80;1.40;;;6.50;99.50;;;;;;4814907;29;20113;-91
2021/03/27 10:05:02;;;;;;;14.68;1.83;;;6.60;99.80;;;;;;4821345;29;20062;-90
2021/03/27 10:07:42;;;;;;;10.55;1.67;;;6.80;99.90;;;;;;4814841;29;20042;-91
2021/03/27 10:10:29;;;;;;;10.93;2.53;;;7.00;99.90;;;;;;4830738;29;20034;-91
2021/03/27 10:13:24;;;;;;;9.48;1.83;;;7.30;99.40;;;;;;4832333;29;20197;-93
2021/03/27 10:15:56;;;;;;;7.70;1.35;;;7.50;97.40;;;;;;4803692;29;20034;-91
2021/03/27 10:18:43;;;;;;;12.88;1.73;;;7.50;95.90;;;;;;4804337;29;20046;-90
2021/03/27 10:21:32;;;;;;;17.98;2.55;;;7.50;95.10;;;;;;4827726;29;20037;-91
2021/03/27 10:24:16;;;;;;;13.52;1.70;;;7.60;95.30;;;;;;4855140;29;20049;-90
2021/03/27 10:27:09;;;;;;;10.52;1.50;;;7.80;94.70;;;;;;4844148;29;20120;-91
2021/03/27 10:29:40;;;;;;;9.57;1.70;;;7.80;93.40;;;;;;4844811;29;20536;-90
2021/03/27 10:32:30;;;;;;;13.15;2.50;;;8.00;92.50;;;;;;4886043;29;20040;-91
2021/03/27 10:35:25;;;;;;;16.60;2.17;;;8.10;92.50;;;;;;4893972;29;20035;-91
2021/03/27 10:37:54;;;;;;;10.05;1.63;;;8.20;91.90;;;;;;4890779;29;20043;-91
2021/03/27 10:40:33;;;;;;;6.47;1.30;;;8.30;91.90;;;;;;4891688;29;20094;-90
2021/03/27 10:43:34;;;;;;;15.63;2.85;;;8.50;90.70;;;;;;4890548;29;20375;-91
2021/03/27 10:46:12;;;;;;;6.30;1.60;;;8.50;90.30;;;;;;4907458;29;20166;-91
2021/03/27 10:49:12;;;;;;;9.70;1.65;;;8.50;89.50;;;;;;4900119;29;20024;-91
2021/03/27 10:51:59;;;;;;;8.00;1.23;;;8.60;89.60;;;;;;4906165;29;20033;-89
2021/03/27 10:55:03;;;;;;;15.82;2.00;;;8.80;88.80;;;;;;4968691;29;20119;-90
2021/03/27 10:58:07;;;;;;;11.30;1.30;;;9.00;87.00;;;;;;4976310;28;20035;-91
2021/03/27 11:01:02;;;;;;;16.52;3.03;;;9.20;85.60;;;;;;4976666;28;20031;-90
2021/03/27 11:03:59;;;;;;;8.70;2.13;;;9.40;84.40;;;;;;4952616;29;20035;-91
2021/03/27 11:06:46;;;;;;;13.30;2.17;;;9.60;83.70;;;;;;4972796;29;20031;-91
2021/03/27 11:09:38;;;;;;;9.57;1.70;;;9.80;82.80;;;;;;4968379;29;20042;-91
2021/03/27 11:12:37;;;;;;;10.40;1.60;;;9.70;82.50;;;;;;4934447;29;20046;-93
2021/03/27 11:15:24;;;;;;;11.13;1.83;;;9.70;81.40;;;;;;4937312;29;20024;-91
2021/03/27 11:18:27;;;;;;;10.27;1.60;;;9.50;79.90;;;;;;4955277;29;20035;-91
2021/03/27 11:20:57;;;;;;;7.43;1.40;;;9.40;80.50;;;;;;4936009;29;20072;-91
2021/03/27 11:23:39;;;;;;;11.15;1.67;;;9.50;79.30;;;;;;4951636;29;20043;-92
2021/03/27 11:26:23;;;;;;;11.77;1.85;;;9.40;79.10;;;;;;4966689;28;20023;-90
2021/03/27 11:29:08;;;;;;;6.03;1.02;;;9.40;79.10;;;;;;4957010;28;20550;-90
2021/03/27 11:31:50;;;;;;;13.30;2.75;;;9.40;77.70;;;;;;4988999;28;20200;-90
2021/03/27 11:34:27;;;;;;;14.00;2.22;;;9.10;76.40;;;;;;4960172;28;20035;-91
2021/03/27 11:37:18;;;;;;;9.60;1.63;;;9.20;77.50;;;;;;4963013;28;20457;-90
2021/03/27 11:39:53;;;;;;;6.00;1.50;;;9.50;77.50;;;;;;4966481;28;20489;-90
2021/03/27 11:42:33;;;;;;;7.03;1.77;;;9.90;77.00;;;;;;4963386;28;20035;-91
2021/03/27 11:45:38;;;;;;;10.50;1.23;;;9.90;76.50;;;;;;4962736;28;20229;-90
2021/03/27 11:48:09;;;;;;;13.70;1.90;;;9.70;76.50;;;;;;4961239;28;20038;-90
2021/03/27 11:50:45;;;;;;;9.38;2.53;;;9.60;76.70;;;;;;4962258;28;20094;-92
2021/03/27 11:53:38;;;;;;;17.25;1.83;;;9.50;76.30;;;;;;4962088;28;20482;-92
2021/03/27 11:56:33;;;;;;;7.75;1.60;;;9.40;77.20;;;;;;4961510;28;20035;-92
2021/03/27 12:01:50;;;;;;;10.20;2.03;;;9.70;77.00;;;;;;4962132;28;20042;-93
2021/03/27 12:04:50;;;;;;;12.98;1.90;;;10.00;76.50;;;;;;4968822;28;20538;-91
2021/03/27 12:07:26;;;;;;;10.68;1.38;;;10.30;76.80;;;;;;4964539;28;20062;-92
2021/03/27 12:10:19;;;;;;;12.73;2.33;;;10.50;75.50;;;;;;4973782;28;20043;-92
2021/03/27 12:13:00;;;;;;;10.18;2.88;;;10.50;75.30;;;;;;4977373;28;20022;-93
2021/03/27 12:15:29;;;;;;;10.20;1.90;;;10.70;75.60;;;;;;4976278;28;20031;-90
2021/03/27 12:18:18;;;;;;;7.25;1.90;;;10.80;72.70;;;;;;4969080;28;20027;-90
2021/03/27 12:21:05;;;;;;;6.32;1.80;;;10.90;71.80;;;;;;4920753;29;20032;-92
2021/03/27 12:23:31;;;;;;;8.13;1.40;;;11.10;71.00;;;;;;4920824;29;20151;-92
2021/03/27 12:26:10;;;;;;;14.90;2.42;;;11.00;70.40;;;;;;4925411;29;20114;-92
2021/03/27 12:28:41;;;;;;;11.13;2.28;;;10.90;70.40;;;;;;4939217;29;20059;-93
2021/03/27 12:31:20;;;;;;;13.25;2.53;;;10.70;70.30;;;;;;4929179;29;20122;-92
2021/03/27 12:34:07;;;;;;;16.45;2.90;;;10.40;70.50;;;;;;4938853;29;20374;-94
2021/03/27 12:36:38;;;;;;;16.52;2.45;;;10.30;71.40;;;;;;4955020;29;20382;-92
2021/03/27 12:39:37;;;;;;;10.25;2.38;;;10.40;71.90;;;;;;4954484;29;20054;-92
2021/03/27 12:42:15;;;;;;;12.50;2.25;;;10.70;72.40;;;;;;4938379;29;20477;-93
2021/03/27 12:45:06;;;;;;;8.63;1.70;;;11.00;71.70;;;;;;4939197;29;20529;-91
2021/03/27 12:47:39;;;;;;;10.43;1.90;;;11.60;71.20;;;;;;4938758;29;20466;-93
2021/03/27 12:50:07;;;;;;;10.30;2.00;;;12.20;70.30;;;;;;4939079;29;20039;-94
2021/03/27 12:53:04;;;;;;;8.23;1.98;;;12.50;65.60;;;;;;4936297;29;20028;-92
2021/03/27 12:55:36;;;;;;;11.23;1.75;;;12.50;65.30;;;;;;4954656;29;20047;-92
2021/03/27 12:58:05;;;;;;;23.58;2.30;;;12.70;64.90;;;;;;4952962;28;20054;-93
2021/03/27 13:00:43;;;;;;;10.40;1.60;;;12.90;63.80;;;;;;4972049;28;20027;-94
2021/03/27 13:03:44;;;;;;;6.93;1.42;;;13.10;63.00;;;;;;4974987;28;20038;-93
2021/03/27 13:06:41;;;;;;;8.48;2.50;;;13.20;61.50;;;;;;4972064;28;20388;-96
2021/03/27 13:09:15;;;;;;;5.22;1.05;;;13.30;61.70;;;;;;4976482;28;20038;-95
2021/03/27 13:12:15;;;;;;;12.45;2.45;;;13.30;60.30;;;;;;4971197;28;20086;-94
2021/03/27 13:15:06;;;;;;;5.32;1.05;;;13.30;60.60;;;;;;4962032;28;20501;-94
2021/03/27 13:17:48;;;;;;;8.93;2.25;;;13.20;61.10;;;;;;4974312;28;20090;-95
2021/03/27 13:20:25;;;;;;;5.75;1.50;;;12.80;59.60;;;;;;4989697;28;20031;-94
2021/03/27 13:23:06;;;;;;;7.57;1.85;;;12.50;60.60;;;;;;4988871;28;20034;-94
2021/03/27 13:25:50;;;;;;;7.45;1.98;;;12.30;61.90;;;;;;4990824;28;20038;-94
2021/03/27 13:28:22;;;;;;;7.35;1.70;;;12.30;62.40;;;;;;4985547;28;20051;-96
2021/03/27 13:31:13;;;;;;;7.90;2.08;;;12.30;62.20;;;;;;4970253;28;20039;-95
2021/03/27 13:34:08;;;;;;;8.32;2.08;;;12.10;61.50;;;;;;4971182;28;20034;-95
2021/03/27 13:36:46;;;;;;;8.60;2.90;;;11.80;62.20;;;;;;4986466;28;20045;-93
2021/03/27 13:39:34;;;;;;;11.38;1.92;;;11.80;63.10;;;;;;4975907;28;20137;-94
2021/03/27 13:42:30;;;;;;;7.55;1.75;;;11.80;63.80;;;;;;4978795;28;20041;-94
2021/03/27 13:45:08;;;;;;;7.18;1.50;;;11.80;64.00;;;;;;4943262;28;20128;-95
2021/03/27 13:47:42;;;;;;;8.90;1.63;;;11.80;64.30;;;;;;4976035;28;20076;-94
2021/03/27 13:50:31;;;;;;;7.63;2.00;;;12.00;64.90;;;;;;4980056;28;20038;-95
2021/03/27 13:53:14;;;;;;;9.20;1.40;;;12.10;65.60;;;;;;4980758;28;20095;-94
2021/03/27 13:55:55;;;;;;;9.50;1.58;;;12.30;64.30;;;;;;4974108;28;20074;-95
2021/03/27 13:58:26;;;;;;;13.13;1.70;;;12.40;64.20;;;;;;4974169;28;20051;-94
2021/03/27 14:01:33;;;;;;;3.42;1.45;;;12.50;64.30;;;;;;4974051;28;20089;-95
2021/03/27 14:04:22;;;;;;;5.38;1.08;;;12.80;64.50;;;;;;4927432;28;20078;-94
2021/03/27 14:07:10;;;;;;;6.72;1.85;;;13.00;63.20;;;;;;4973555;28;20054;-95
2021/03/27 14:10:00;;;;;;;5.78;1.75;;;13.10;62.70;;;;;;4974427;28;20043;-94
2021/03/27 14:12:34;;;;;;;9.57;1.48;;;12.90;62.40;;;;;;4973920;28;20039;-95
2021/03/27 14:15:02;;;;;;;5.85;1.40;;;12.80;62.90;;;;;;4974069;28;20029;-94
2021/03/27 14:18:03;;;;;;;6.47;1.58;;;12.90;63.50;;;;;;4973813;28;20033;-94
2021/03/27 14:20:45;;;;;;;10.43;1.90;;;13.10;63.80;;;;;;4975202;28;20102;-95